Terminal Aerodrome Forecast
Issued by NWS

Home | Current Version | Previous Version | Text Only | Print | Product List | Glossary Off
Versions: 1 2 3 4 5 6 7 8 9 10 11 12 13 14 15 16 17 18 19 20 21 22 23

847
FTUS41 KCLE 261519 AAA
TAFFDY
TAF AMD
KFDY 261519Z 2615/2712 28011KT P6SM SCT012 BKN070
     FM261700 34014G22KT 5SM BR OVC006
      TEMPO 2617/2621 1 1/2SM BR OVC003
     FM262300 04015KT P6SM OVC010=

USA.gov is the U.S. government's official web portal to all federal, state and local government web resources and services.